createdAt,value
2022-12-06T00:01:35.267Z,99203.50
2022-12-06T00:04:08.517Z,99198.22
2022-12-06T00:06:44.277Z,99198.88
2022-12-06T00:09:34.520Z,99195.88
2022-12-06T00:12:02.243Z,99191.65
2022-12-06T00:14:30.037Z,99191.05
2022-12-06T00:16:57.757Z,99187.85
2022-12-06T00:19:25.846Z,99188.54
2022-12-06T00:21:54.431Z,99184.24
2022-12-06T00:24:23.316Z,99174.81
2022-12-06T00:26:51.246Z,99170.66
2022-12-06T00:29:23.895Z,99170.15
2022-12-06T00:31:51.919Z,99171.01
2022-12-06T00:34:19.851Z,99172.83
2022-12-06T00:36:48.884Z,99172.21
2022-12-06T00:39:18.103Z,99168.11
2022-12-06T00:41:45.930Z,99163.79
2022-12-06T00:44:13.853Z,99160.38
2022-12-06T00:46:41.537Z,99169.02
2022-12-06T00:49:09.799Z,99162.96
2022-12-06T00:51:40.324Z,99168.23
2022-12-06T00:54:08.752Z,99163.92
2022-12-06T00:56:36.913Z,99163.40
2022-12-06T00:59:05.526Z,99161.79
2022-12-06T01:01:36.183Z,99158.33
2022-12-06T01:04:06.606Z,99160.25
2022-12-06T01:06:36.713Z,99161.69
2022-12-06T01:09:09.784Z,99154.89
2022-12-06T01:11:38.285Z,99155.35
2022-12-06T01:14:06.540Z,99152.94
2022-12-06T01:16:35.198Z,99148.30
2022-12-06T01:19:05.464Z,99150.18
2022-12-06T01:21:33.204Z,99150.82
2022-12-06T01:24:03.838Z,99145.44
2022-12-06T01:26:33.893Z,99149.89
2022-12-06T01:29:02.504Z,99146.59
2022-12-06T01:31:37.230Z,99150.90
2022-12-06T01:34:09.908Z,99147.52
2022-12-06T01:36:37.628Z,99137.80
2022-12-06T01:39:08.267Z,99135.65
2022-12-06T01:41:37.116Z,99125.45
2022-12-06T01:44:05.230Z,99132.95
2022-12-06T01:46:42.129Z,99130.58
2022-12-06T01:49:18.305Z,99125.69
2022-12-06T01:51:52.135Z,99124.40
2022-12-06T01:54:20.899Z,99122.46
2022-12-06T01:56:49.343Z,99121.21
2022-12-06T01:59:17.221Z,99118.08
2022-12-06T02:01:46.414Z,99110.83
2022-12-06T02:04:15.456Z,99105.25
2022-12-06T02:06:44.210Z,99104.61
2022-12-06T02:09:12.733Z,99099.23
2022-12-06T02:11:41.504Z,99102.99
2022-12-06T02:14:13.200Z,99104.60
2022-12-06T02:17:10.166Z,99096.87
2022-12-06T02:20:16.249Z,99098.58
2022-12-06T02:23:00.984Z,99094.95
2022-12-06T02:25:55.886Z,99093.83
2022-12-06T02:28:52.003Z,99085.02
2022-12-06T02:31:25.233Z,99084.85
2022-12-06T02:34:02.800Z,99089.89
2022-12-06T02:36:42.612Z,99089.98
2022-12-06T02:39:24.704Z,99090.80
2022-12-06T02:50:35.488Z,99088.42
2022-12-06T02:53:04.507Z,99081.25
2022-12-06T02:55:32.868Z,99078.38
2022-12-06T02:58:00.934Z,99079.84
2022-12-06T03:00:29.331Z,99076.13
2022-12-06T03:03:17.622Z,99074.70
2022-12-06T03:06:02.928Z,99068.58
2022-12-06T03:08:42.749Z,99064.42
2022-12-06T03:11:10.983Z,99068.09
2022-12-06T03:13:55.771Z,99069.00
2022-12-06T03:16:30.247Z,99067.10
2022-12-06T03:19:04.889Z,99064.98
2022-12-06T03:21:57.692Z,99061.33
2022-12-06T03:24:27.910Z,99059.45
2022-12-06T03:26:57.168Z,99056.64
2022-12-06T03:29:26.728Z,99057.89
2022-12-06T03:31:56.276Z,99051.82
2022-12-06T03:34:31.403Z,99050.86
2022-12-06T03:36:59.911Z,99044.59
2022-12-06T03:39:39.460Z,99039.14
2022-12-06T03:42:07.745Z,99036.84
2022-12-06T03:44:35.747Z,99037.40
2022-12-06T03:47:16.029Z,99038.02
2022-12-06T03:49:59.379Z,99038.61
2022-12-06T03:52:28.966Z,99036.80
2022-12-06T03:54:56.869Z,99033.05
2022-12-06T03:57:24.690Z,99026.70
2022-12-06T03:59:52.457Z,99017.83
2022-12-06T04:02:20.105Z,99013.84
2022-12-06T04:04:49.376Z,99013.11
2022-12-06T04:07:21.200Z,99018.70
2022-12-06T04:10:04.298Z,99008.55
2022-12-06T04:12:52.372Z,99008.55
2022-12-06T04:15:21.536Z,99008.08
2022-12-06T04:18:08.520Z,99001.13
2022-12-06T04:21:18.399Z,98999.06
2022-12-06T04:23:49.400Z,98994.43
2022-12-06T04:26:20.302Z,98995.83
2022-12-06T04:29:07.391Z,98986.78
2022-12-06T04:31:54.668Z,98980.59
2022-12-06T04:34:41.337Z,98979.69
2022-12-06T04:37:28.385Z,98981.98
2022-12-06T04:39:56.115Z,98984.83
2022-12-06T04:42:42.458Z,98983.44
2022-12-06T04:45:10.734Z,98983.29
2022-12-06T04:47:38.498Z,98983.95
2022-12-06T04:50:07.115Z,98982.05
2022-12-06T04:52:36.219Z,98978.89
2022-12-06T04:55:05.290Z,98977.00
2022-12-06T04:57:33.141Z,98969.77
2022-12-06T05:00:01.226Z,98965.98
2022-12-06T05:02:29.340Z,98961.13
2022-12-06T05:04:57.421Z,98962.86
2022-12-06T05:07:25.196Z,98958.76
2022-12-06T05:09:52.902Z,98959.19
2022-12-06T05:12:20.653Z,98961.06
2022-12-06T05:14:48.348Z,98964.74
2022-12-06T05:17:16.016Z,98963.51
2022-12-06T05:19:43.682Z,98968.25
2022-12-06T05:22:11.363Z,98967.13
2022-12-06T05:24:39.098Z,98967.73
2022-12-06T05:27:06.772Z,98968.94
2022-12-06T05:29:34.459Z,98964.98
2022-12-06T05:32:02.346Z,98962.95
2022-12-06T05:34:30.150Z,98962.48
2022-12-06T05:36:57.777Z,98966.28
2022-12-06T05:39:25.657Z,98959.73
2022-12-06T05:41:53.420Z,98950.84
2022-12-06T05:44:21.119Z,98939.44
2022-12-06T05:46:48.883Z,98937.09
2022-12-06T05:49:16.698Z,98933.85
2022-12-06T05:51:44.500Z,98929.48
2022-12-06T05:54:12.446Z,98927.60
2022-12-06T05:56:40.118Z,98921.63
2022-12-06T05:59:07.953Z,98922.14
2022-12-06T06:01:35.701Z,98925.27
2022-12-06T06:04:03.633Z,98926.95
2022-12-06T06:06:31.452Z,98924.35
2022-12-06T06:08:59.193Z,98921.34
2022-12-06T06:11:26.969Z,98912.02
2022-12-06T06:13:54.679Z,98911.63
2022-12-06T06:16:22.581Z,98917.16
2022-12-06T06:18:50.458Z,98919.98
2022-12-06T06:21:18.179Z,98916.14
2022-12-06T06:23:45.872Z,98916.84
2022-12-06T06:26:13.659Z,98923.67
2022-12-06T06:28:41.430Z,98925.73
2022-12-06T06:31:14.995Z,98917.56
2022-12-06T06:33:50.898Z,98923.98
2022-12-06T06:36:18.648Z,98923.83
2022-12-06T06:38:46.335Z,98920.33
2022-12-06T06:41:14.014Z,98916.06
2022-12-06T06:43:41.761Z,98911.11
2022-12-06T06:46:10.074Z,98904.08
2022-12-06T06:48:39.702Z,98906.42
2022-12-06T06:51:14.938Z,98904.25
2022-12-06T06:53:42.789Z,98900.89
2022-12-06T06:56:11.305Z,98909.70
2022-12-06T06:58:39.122Z,98907.16
2022-12-06T07:01:08.597Z,98906.50
2022-12-06T07:03:36.437Z,98904.80
2022-12-06T07:06:08.373Z,98903.50
2022-12-06T07:08:37.213Z,98897.46
2022-12-06T07:11:05.591Z,98896.61
2022-12-06T07:13:33.746Z,98897.23
2022-12-06T07:16:06.975Z,98892.29
2022-12-06T07:18:36.943Z,98898.23
2022-12-06T07:21:07.385Z,98905.13
2022-12-06T07:23:36.239Z,98910.10
2022-12-06T07:26:09.647Z,98911.88
2022-12-06T07:28:39.033Z,98914.52
2022-12-06T07:31:09.192Z,98906.55
2022-12-06T07:33:37.188Z,98904.73
2022-12-06T07:36:13.827Z,98899.73
2022-12-06T07:38:43.391Z,98900.31
2022-12-06T07:41:31.896Z,98897.58
2022-12-06T07:44:20.320Z,98898.45
2022-12-06T07:46:48.588Z,98897.13
2022-12-06T07:49:17.773Z,98894.45
2022-12-06T07:51:45.943Z,98897.91
2022-12-06T07:54:14.860Z,98897.61
2022-12-06T07:56:43.285Z,98893.80
2022-12-06T07:59:11.664Z,98891.40
2022-12-06T08:01:39.699Z,98885.02
2022-12-06T08:04:07.915Z,98885.91
2022-12-06T08:06:35.804Z,98881.46
2022-12-06T08:09:03.702Z,98888.17
2022-12-06T08:11:31.540Z,98886.95
2022-12-06T08:13:59.347Z,98880.49
2022-12-06T08:16:27.428Z,98884.02
2022-12-06T08:18:55.733Z,98887.63
2022-12-06T08:21:26.126Z,98888.06
2022-12-06T08:23:54.896Z,98890.58
2022-12-06T08:26:23.977Z,98890.78
2022-12-06T08:28:51.878Z,98888.23
2022-12-06T08:31:22.698Z,98884.54
2022-12-06T08:33:50.677Z,98885.36
2022-12-06T08:36:22.008Z,98885.76
2022-12-06T08:38:51.736Z,98889.56
2022-12-06T08:41:53.048Z,98892.14
2022-12-06T08:44:21.839Z,98892.85
2022-12-06T08:46:50.187Z,98890.30
2022-12-06T08:49:18.026Z,98890.93
2022-12-06T08:51:47.107Z,98896.17
2022-12-06T08:54:18.288Z,98889.46
2022-12-06T08:56:46.248Z,98885.21
2022-12-06T08:59:14.621Z,98888.21
2022-12-06T09:01:42.710Z,98884.48
2022-12-06T09:04:11.444Z,98875.86
2022-12-06T09:06:40.886Z,98875.55
2022-12-06T09:09:10.021Z,98872.81
2022-12-06T09:11:39.037Z,98869.84
2022-12-06T09:14:09.361Z,98866.64
2022-12-06T09:16:37.752Z,98861.43
2022-12-06T09:19:05.464Z,98860.21
2022-12-06T09:21:34.575Z,98857.27
2022-12-06T09:24:04.727Z,98858.33
2022-12-06T09:26:33.001Z,98858.74
2022-12-06T09:29:00.762Z,98860.33
2022-12-06T09:31:28.641Z,98852.83
2022-12-06T09:33:56.413Z,98853.94
2022-12-06T09:36:27.042Z,98848.45
2022-12-06T09:39:05.418Z,98847.50
2022-12-06T09:42:01.543Z,98840.83
2022-12-06T09:44:55.355Z,98835.93
2022-12-06T09:47:58.625Z,98833.48
2022-12-06T09:50:42.246Z,98823.39
2022-12-06T09:53:47.137Z,98820.80
2022-12-06T09:56:25.644Z,98810.27
2022-12-06T09:58:56.919Z,98805.79
2022-12-06T10:01:46.382Z,98805.42
2022-12-06T10:04:39.340Z,98801.17
2022-12-06T10:07:27.534Z,98797.19
2022-12-06T10:10:07.852Z,98790.20
2022-12-06T10:12:45.076Z,98787.45
2022-12-06T10:15:23.013Z,98784.70
2022-12-06T10:17:56.763Z,98783.49
2022-12-06T10:20:34.410Z,98786.86
2022-12-06T10:23:04.974Z,98781.92
2022-12-06T10:25:46.760Z,98781.49
2022-12-06T10:28:20.142Z,98773.64
2022-12-06T10:30:53.548Z,98770.46
2022-12-06T10:33:35.683Z,98765.23
2022-12-06T10:36:05.830Z,98757.84
2022-12-06T10:38:59.472Z,98760.14
2022-12-06T10:41:42.139Z,98755.18
2022-12-06T10:44:24.525Z,98747.92
2022-12-06T10:47:13.065Z,98745.59
2022-12-06T10:50:04.850Z,98743.42
2022-12-06T10:52:36.649Z,98739.46
2022-12-06T10:55:10.804Z,98739.43
2022-12-06T10:58:04.108Z,98738.91
2022-12-06T11:00:38.470Z,98733.14
2022-12-06T11:03:18.869Z,98734.70
2022-12-06T11:05:51.727Z,98731.79
2022-12-06T11:08:30.468Z,98731.64
2022-12-06T11:10:59.678Z,98724.08
2022-12-06T11:13:45.548Z,98721.64
2022-12-06T11:16:19.481Z,98721.14
2022-12-06T11:18:48.671Z,98718.06
2022-12-06T11:21:37.567Z,98718.05
2022-12-06T11:24:20.959Z,98716.67
2022-12-06T11:26:48.719Z,98714.25
2022-12-06T11:29:16.814Z,98710.18
2022-12-06T11:31:50.789Z,98707.44
2022-12-06T11:34:23.258Z,98703.39
2022-12-06T11:36:58.250Z,98702.00
2022-12-06T11:39:29.910Z,98700.45
2022-12-06T11:42:00.972Z,98695.23
2022-12-06T11:44:36.347Z,98694.80
2022-12-06T11:47:05.588Z,98696.59
2022-12-06T11:49:42.568Z,98690.48
2022-12-06T11:52:34.043Z,98692.36
2022-12-06T11:55:17.032Z,98695.89
2022-12-06T11:57:49.721Z,98695.17
2022-12-06T12:00:22.936Z,98692.55
2022-12-06T12:02:53.433Z,98690.86
2022-12-06T12:05:26.735Z,98689.68
2022-12-06T12:07:58.351Z,98685.05
2022-12-06T12:10:31.216Z,98682.42
2022-12-06T12:13:30.910Z,98681.58
2022-12-06T12:16:06.819Z,98672.91
2022-12-06T12:18:37.345Z,98670.00
2022-12-06T12:21:06.669Z,98670.33
2022-12-06T12:23:43.371Z,98671.16
2022-12-06T12:26:16.106Z,98666.33
2022-12-06T12:28:45.950Z,98664.23
2022-12-06T12:31:19.686Z,98658.13
2022-12-06T12:33:47.818Z,98660.10
2022-12-06T12:36:26.033Z,98654.46
2022-12-06T12:38:56.825Z,98657.11
2022-12-06T12:41:30.588Z,98648.61
2022-12-06T12:47:00.685Z,98648.48
2022-12-06T12:49:34.391Z,98642.33
2022-12-06T12:52:23.119Z,98639.99
2022-12-06T12:55:22.015Z,98639.43
2022-12-06T12:57:55.085Z,98636.67
2022-12-06T13:00:25.631Z,98633.08
2022-12-06T13:03:00.730Z,98634.90
2022-12-06T13:05:35.167Z,98630.06
2022-12-06T13:08:20.189Z,98628.83
2022-12-06T13:10:55.481Z,98627.55
2022-12-06T13:13:41.365Z,98623.75
2022-12-06T13:16:13.084Z,98624.77
2022-12-06T13:18:56.132Z,98620.69
2022-12-06T13:21:32.385Z,98622.54
2022-12-06T13:24:22.802Z,98620.58
2022-12-06T13:26:58.606Z,98619.33
2022-12-06T13:29:39.819Z,98618.16
2022-12-06T13:32:23.194Z,98618.80
2022-12-06T13:34:55.212Z,98617.54
2022-12-06T13:37:34.160Z,98616.94
2022-12-06T13:40:04.521Z,98611.52
2022-12-06T13:42:38.643Z,98613.10
2022-12-06T13:45:45.934Z,98608.55
2022-12-06T13:48:26.189Z,98612.02
2022-12-06T13:51:01.582Z,98611.55
2022-12-06T13:53:34.027Z,98608.03
2022-12-06T13:56:28.831Z,98609.52
2022-12-06T13:58:58.220Z,98610.70
2022-12-06T14:01:49.330Z,98611.75
2022-12-06T14:09:44.527Z,98606.92
2022-12-06T14:12:20.502Z,98608.39
2022-12-06T14:14:56.668Z,98598.83
2022-12-06T14:17:59.752Z,98595.95
2022-12-06T14:20:27.897Z,98592.92
2022-12-06T14:22:56.303Z,98593.33
2022-12-06T14:25:28.351Z,98593.67
2022-12-06T14:28:13.109Z,98592.23
2022-12-06T14:30:41.354Z,98596.11
2022-12-06T14:33:21.860Z,98595.56
2022-12-06T14:35:52.481Z,98597.05
2022-12-06T14:38:31.336Z,98594.05
2022-12-06T14:41:17.980Z,98595.02
2022-12-06T14:43:49.217Z,98596.08
2022-12-06T14:46:17.841Z,98598.38
2022-12-06T14:49:07.933Z,98597.48
2022-12-06T14:51:38.674Z,98602.27
2022-12-06T14:54:29.115Z,98595.08
2022-12-06T14:56:56.996Z,98590.88
2022-12-06T15:00:03.073Z,98590.52
2022-12-06T15:02:28.948Z,98589.08
2022-12-06T15:04:58.879Z,98587.37
2022-12-06T15:07:53.315Z,98584.46
2022-12-06T15:10:25.681Z,98583.81
2022-12-06T15:12:56.403Z,98584.27
2022-12-06T15:15:42.585Z,98588.96
2022-12-06T15:18:23.578Z,98587.17
2022-12-06T15:20:53.604Z,98589.84
2022-12-06T15:23:31.619Z,98586.58
2022-12-06T15:25:59.466Z,98579.27
2022-12-06T15:28:27.265Z,98578.73
2022-12-06T15:30:55.074Z,98574.70
2022-12-06T15:33:24.531Z,98573.20
2022-12-06T15:35:52.354Z,98576.02
2022-12-06T15:38:20.400Z,98571.80
2022-12-06T15:40:50.409Z,98572.70
2022-12-06T15:43:18.112Z,98567.01
2022-12-06T15:45:45.928Z,98566.59
2022-12-06T15:48:13.967Z,98563.70
2022-12-06T15:50:41.727Z,98558.40
2022-12-06T15:53:18.461Z,98560.74
2022-12-06T15:55:46.536Z,98560.46
2022-12-06T15:58:14.419Z,98554.69
2022-12-06T16:00:43.084Z,98553.89
2022-12-06T16:03:11.280Z,98546.31
2022-12-06T16:05:39.374Z,98552.52
2022-12-06T16:08:07.669Z,98554.71
2022-12-06T16:11:09.701Z,98554.83
2022-12-06T16:13:23.776Z,98555.55
2022-12-06T16:15:52.766Z,98553.92
2022-12-06T16:18:20.793Z,98549.70
2022-12-06T16:20:48.981Z,98549.90
2022-12-06T16:24:11.225Z,98546.19
2022-12-06T16:26:28.369Z,98545.30
2022-12-06T16:28:57.612Z,98547.41
2022-12-06T16:31:26.113Z,98541.87
2022-12-06T16:33:54.376Z,98544.05
2022-12-06T16:36:29.528Z,98545.54
2022-12-06T16:39:02.861Z,98544.64
2022-12-06T16:41:35.974Z,98539.06
2022-12-06T16:44:04.333Z,98543.95
2022-12-06T16:46:37.238Z,98546.15
2022-12-06T16:52:11.054Z,98539.36
2022-12-06T16:54:42.063Z,98535.77
2022-12-06T16:57:13.182Z,98536.67
2022-12-06T16:59:43.168Z,98537.84
2022-12-06T17:02:29.054Z,98536.73
2022-12-06T17:05:06.657Z,98536.80
2022-12-06T17:07:37.086Z,98537.25
2022-12-06T17:10:07.879Z,98535.44
2022-12-06T17:12:37.400Z,98526.63
2022-12-06T17:15:07.493Z,98529.66
2022-12-06T17:17:36.078Z,98531.46
2022-12-06T17:20:08.262Z,98530.04
2022-12-06T17:22:38.002Z,98528.94
2022-12-06T17:25:06.958Z,98528.70
2022-12-06T17:27:35.664Z,98528.16
2022-12-06T17:30:07.080Z,98529.85
2022-12-06T17:32:36.129Z,98532.96
2022-12-06T17:35:05.005Z,98532.88
2022-12-06T17:37:35.289Z,98517.70
2022-12-06T17:40:04.682Z,98530.34
2022-12-06T17:42:54.744Z,98527.55
2022-12-06T17:45:24.916Z,98526.45
2022-12-06T17:47:54.232Z,98527.34
2022-12-06T17:50:22.871Z,98528.06
2022-12-06T17:52:56.128Z,98526.86
2022-12-06T17:55:25.077Z,98529.11
2022-12-06T17:57:54.484Z,98530.13
2022-12-06T18:00:23.669Z,98527.15
2022-12-06T18:02:54.755Z,98523.23
2022-12-06T18:05:23.294Z,98525.71
2022-12-06T18:07:54.294Z,98521.13
2022-12-06T18:10:22.887Z,98519.79
2022-12-06T18:12:51.375Z,98513.20
2022-12-06T18:15:38.065Z,98519.87
2022-12-06T18:18:06.876Z,98512.10
2022-12-06T18:20:35.242Z,98513.73
2022-12-06T18:23:03.486Z,98511.77
2022-12-06T18:25:33.101Z,98507.66
2022-12-06T18:28:01.778Z,98508.98
2022-12-06T18:30:32.813Z,98504.54
2022-12-06T18:33:05.826Z,98507.33
2022-12-06T18:35:36.421Z,98503.19
2022-12-06T18:38:04.954Z,98502.16
2022-12-06T18:40:33.870Z,98502.27
2022-12-06T18:43:01.649Z,98498.80
2022-12-06T18:45:29.513Z,98495.84
2022-12-06T18:47:57.370Z,98495.86
2022-12-06T18:50:25.270Z,98498.41
2022-12-06T18:52:53.041Z,98499.93
2022-12-06T18:55:20.676Z,98496.48
2022-12-06T18:57:48.540Z,98497.52
2022-12-06T19:00:16.909Z,98492.89
2022-12-06T19:02:44.686Z,98494.31
2022-12-06T19:05:13.209Z,98493.42
2022-12-06T19:07:41.108Z,98493.73
2022-12-06T19:10:09.131Z,98497.41
2022-12-06T19:12:36.911Z,98497.17
2022-12-06T19:15:05.169Z,98498.38
2022-12-06T19:17:32.898Z,98501.33
2022-12-06T19:20:00.773Z,98498.73
2022-12-06T19:22:28.843Z,98502.45
2022-12-06T19:24:57.080Z,98497.42
2022-12-06T19:27:24.877Z,98494.80
2022-12-06T19:29:52.715Z,98495.27
2022-12-06T19:32:20.470Z,98493.79
2022-12-06T19:34:48.140Z,98497.61
2022-12-06T19:37:17.524Z,98496.30
2022-12-06T19:39:45.895Z,98493.05
2022-12-06T19:42:32.381Z,98490.30
2022-12-06T19:45:00.138Z,98490.31
2022-12-06T19:47:27.877Z,98482.94
2022-12-06T19:49:57.056Z,98482.17
2022-12-06T19:52:30.583Z,98483.46
2022-12-06T19:54:58.671Z,98483.71
2022-12-06T19:57:26.455Z,98484.91
2022-12-06T19:59:55.824Z,98478.98
2022-12-06T20:02:23.609Z,98475.34
2022-12-06T20:04:51.705Z,98473.91
2022-12-06T20:07:19.424Z,98474.23
2022-12-06T20:09:47.081Z,98477.02
2022-12-06T20:12:14.923Z,98475.05
2022-12-06T20:14:48.040Z,98473.52
2022-12-06T20:17:18.344Z,98474.46
2022-12-06T20:19:46.922Z,98471.20
2022-12-06T20:22:16.502Z,98477.42
2022-12-06T20:24:44.966Z,98478.56
2022-12-06T20:27:12.703Z,98473.73
2022-12-06T20:29:40.578Z,98470.17
2022-12-06T20:32:10.263Z,98460.74
2022-12-06T20:34:38.111Z,98457.88
2022-12-06T20:37:07.005Z,98454.73
2022-12-06T20:39:35.947Z,98454.65
2022-12-06T20:42:06.845Z,98453.83
2022-12-06T20:44:35.616Z,98450.16
2022-12-06T20:47:04.141Z,98448.63
2022-12-06T20:49:32.338Z,98450.89
2022-12-06T20:52:02.186Z,98452.55
2022-12-06T20:54:30.386Z,98452.65
2022-12-06T20:56:58.492Z,98448.65
2022-12-06T20:59:26.812Z,98445.94
2022-12-06T21:01:55.052Z,98444.35
2022-12-06T21:04:23.332Z,98444.74
2022-12-06T21:06:51.210Z,98439.21
2022-12-06T21:09:19.093Z,98446.07
2022-12-06T21:11:47.625Z,98440.95
2022-12-06T21:14:16.491Z,98440.94
2022-12-06T21:16:44.439Z,98435.36
2022-12-06T21:19:15.725Z,98433.41
2022-12-06T21:21:53.275Z,98432.42
2022-12-06T21:24:22.407Z,98435.28
2022-12-06T21:26:50.293Z,98437.23
2022-12-06T21:29:21.631Z,98436.98
2022-12-06T21:31:52.124Z,98436.88
2022-12-06T21:34:19.912Z,98441.96
2022-12-06T21:36:47.679Z,98438.83
2022-12-06T21:39:15.354Z,98438.45
2022-12-06T21:41:43.239Z,98439.61
2022-12-06T21:44:11.024Z,98436.31
2022-12-06T21:46:39.055Z,98435.19
2022-12-06T21:49:07.024Z,98435.55
2022-12-06T21:51:34.776Z,98437.41
2022-12-06T21:54:03.127Z,98437.27
2022-12-06T21:56:31.202Z,98441.45
2022-12-06T21:59:01.932Z,98437.88
2022-12-06T22:01:31.239Z,98435.91
2022-12-06T22:04:02.196Z,98438.69
2022-12-06T22:06:31.593Z,98433.45
2022-12-06T22:09:02.067Z,98435.90
2022-12-06T22:11:30.341Z,98437.70
2022-12-06T22:13:59.663Z,98433.64
2022-12-06T22:16:28.681Z,98436.14
2022-12-06T22:18:57.659Z,98437.18
2022-12-06T22:21:27.542Z,98434.55
2022-12-06T22:23:58.127Z,98434.88
2022-12-06T22:26:30.444Z,98430.79
2022-12-06T22:28:59.169Z,98437.25
2022-12-06T22:31:33.522Z,98438.55
2022-12-06T22:34:02.292Z,98434.15
2022-12-06T22:36:31.004Z,98436.36
2022-12-06T22:39:00.976Z,98432.34
2022-12-06T22:41:29.491Z,98434.30
2022-12-06T22:44:00.725Z,98434.59
2022-12-06T22:46:30.056Z,98434.24
2022-12-06T22:48:59.276Z,98431.11
2022-12-06T22:51:36.014Z,98430.16
2022-12-06T22:54:12.609Z,98430.55
2022-12-06T22:56:47.299Z,98428.59
2022-12-06T22:59:17.189Z,98428.23
2022-12-06T23:01:45.187Z,98426.98
2022-12-06T23:04:13.121Z,98424.39
2022-12-06T23:06:40.876Z,98425.59
2022-12-06T23:09:08.691Z,98421.45
2022-12-06T23:11:36.906Z,98419.98
2022-12-06T23:14:04.825Z,98416.70
2022-12-06T23:16:32.797Z,98412.43
2022-12-06T23:19:01.887Z,98412.24
2022-12-06T23:21:31.817Z,98415.02
2022-12-06T23:24:02.068Z,98415.88
2022-12-06T23:26:33.062Z,98415.02
2022-12-06T23:29:01.157Z,98419.66
2022-12-06T23:31:31.876Z,98420.53
2022-12-06T23:34:08.489Z,98419.08
2022-12-06T23:36:36.304Z,98420.42
2022-12-06T23:39:05.198Z,98413.08
2022-12-06T23:41:34.010Z,98410.66
2022-12-06T23:44:02.102Z,98405.43
2022-12-06T23:46:32.423Z,98399.89
2022-12-06T23:49:00.961Z,98394.96
2022-12-06T23:51:34.080Z,98394.92
2022-12-06T23:54:03.954Z,98393.28
2022-12-06T23:56:37.492Z,98386.79
2022-12-06T23:59:07.863Z,98387.45
